Date,TemperatureHighF,TemperatureAvgF,TemperatureLowF,DewpointHighF,DewpointAvgF,DewpointLowF,HumidityHigh,HumidityAvg,HumidityLow,PressureMaxIn,PressureMinIn,WindSpeedMaxMPH,WindSpeedAvgMPH,GustSpeedMaxMPH,PrecipitationSumIn
2013-2-1,30,26,21,19,14,6,81,62,38,30.25,29.81,8,2,11,0.24
2013-2-2,30,21,16,18,11,7,82,66,48,30.31,30.06,5,1,7,0.25
2013-2-3,33,25,19,24,18,13,84,76,64,30.06,29.83,3,0,4,0.24
2013-2-4,29,24,20,20,13,10,85,62,48,30.00,29.85,8,2,8,0.25
2013-2-5,31,28,24,26,22,15,88,77,67,29.99,29.92,4,0,4,0.23
2013-2-6,37,32,24,28,22,12,91,68,47,30.38,29.94,10,1,10,0.25
2013-2-7,36,27,19,21,15,10,72,60,53,30.51,30.34,3,1,6,0.25
2013-2-8,34,31,28,31,27,18,91,84,65,30.34,29.70,11,3,14,0.24
2013-2-9,32,27,18,28,16,8,91,66,43,30.37,29.80,8,1,11,0.14
2013-2-10,51,30,16,33,16,8,76,58,34,30.49,30.34,5,1,6,0.54
2013-2-11,43,35,28,42,31,18,97,85,67,30.35,29.71,2,0,3,0.30
2013-2-12,42,39,33,37,28,24,93,64,54,30.01,29.77,7,2,9,0.36
2013-2-13,51,35,23,37,26,17,84,69,50,29.99,29.72,5,0,5,0.00
2013-2-14,48,36,28,33,28,22,92,73,51,30.04,29.75,4,0,5,0.21
2013-2-15,58,40,27,42,29,22,89,66,44,30.05,29.95,6,1,6,0.26
2013-2-16,36,33,28,32,24,13,88,69,52,30.01,29.79,8,2,9,0.17
2013-2-17,30,25,17,13,8,2,61,48,38,30.04,29.72,14,4,17,0.24
2013-2-18,34,24,16,15,9,3,61,51,39,30.28,30.04,8,2,12,0.25
2013-2-19,44,33,23,39,25,13,95,72,56,30.22,29.73,7,1,7,0.24
2013-2-20,36,29,24,25,16,11,70,58,49,30.02,29.77,11,3,12,0.40
2013-2-21,33,27,22,18,14,11,70,60,50,30.32,30.00,12,3,13,0.00
2013-2-22,38,30,21,27,21,13,77,69,59,30.41,30.29,9,1,10,0.00
2013-2-23,40,36,33,38,33,27,93,88,78,30.30,29.86,6,1,7,1.01
2013-2-24,45,38,32,38,31,22,94,78,62,30.03,29.80,10,2,10,1.78
2013-2-25,42,36,31,30,27,22,79,70,60,30.27,30.03,10,1,13,1.94
2013-2-26,44,36,27,35,29,23,92,77,65,30.31,29.90,8,2,10,1.98
2013-2-27,48,41,35,47,38,33,96,88,76,29.91,29.55,11,2,13,1.32
2013-2-28,49,40,35,39,32,28,93,76,57,29.67,29.60,6,1,6,0.00